Time;durP1;ratioP1;P1;durP2;ratioP2;P2;SDS_P1;SDS_P2;PMS_P1;PMS_P2;Temp;Humidity;BMP_temperature;BMP_pressure;BME280_temperature;BME280_humidity;BME280_pressure;Samples;Min_cycle;Max_cycle;Signal;HPM_P1;HPM_P2
2022/07/27 00:00:07;;;;;;;5.03;1.20;;;14.10;99.90;;;;;;5033663;28;20051;-89
2022/07/27 00:02:33;;;;;;;4.93;1.00;;;14.10;99.90;;;;;;5060494;28;20126;-90
2022/07/27 00:04:59;;;;;;;2.72;1.17;;;14.10;99.90;;;;;;5028998;28;20075;-90
2022/07/27 00:07:24;;;;;;;5.40;1.20;;;14.00;99.90;;;;;;5025113;28;20292;-91
2022/07/27 00:09:50;;;;;;;2.92;1.25;;;14.00;99.90;;;;;;5061018;28;20079;-89
2022/07/27 00:12:15;;;;;;;3.78;1.50;;;14.10;99.90;;;;;;5047327;28;20040;-90
2022/07/27 00:14:41;;;;;;;4.88;1.00;;;14.00;99.90;;;;;;5046380;28;20434;-90
2022/07/27 00:17:07;;;;;;;2.80;0.95;;;14.00;99.90;;;;;;5059069;28;20043;-91
2022/07/27 00:19:33;;;;;;;4.97;1.52;;;13.90;99.90;;;;;;5060389;28;20301;-89
2022/07/27 00:21:58;;;;;;;2.50;0.98;;;13.70;99.90;;;;;;5051232;28;20035;-90
2022/07/27 00:24:24;;;;;;;3.40;1.15;;;13.60;99.90;;;;;;5045938;28;20033;-90
2022/07/27 00:26:50;;;;;;;3.50;1.15;;;13.50;99.90;;;;;;5049703;28;20059;-90
2022/07/27 00:29:16;;;;;;;5.85;1.77;;;13.50;99.90;;;;;;5058847;28;20036;-89
2022/07/27 00:31:42;;;;;;;6.82;1.67;;;13.40;99.90;;;;;;5034014;28;20060;-91
2022/07/27 00:34:08;;;;;;;5.45;1.55;;;13.40;1.00;;;;;;5033683;28;20058;-90
2022/07/27 00:36:33;;;;;;;6.32;1.50;;;13.30;1.00;;;;;;5047853;28;20476;-90
2022/07/27 00:38:59;;;;;;;3.33;1.45;;;13.20;1.00;;;;;;5030042;28;20036;-90
2022/07/27 00:41:25;;;;;;;3.38;1.35;;;13.20;1.00;;;;;;5049670;28;20044;-90
2022/07/27 00:43:56;;;;;;;5.05;1.60;;;13.20;1.00;;;;;;5050686;28;20048;-90
2022/07/27 00:46:24;;;;;;;5.38;1.50;;;13.10;1.00;;;;;;5061845;28;20136;-90
2022/07/27 00:48:50;;;;;;;2.75;1.52;;;13.10;1.00;;;;;;5051670;28;20498;-90
2022/07/27 00:51:17;;;;;;;6.00;1.45;;;13.00;1.00;;;;;;5048072;28;20040;-90
2022/07/27 00:53:44;;;;;;;3.03;1.30;;;13.00;1.00;;;;;;5051342;28;20043;-89
2022/07/27 00:56:10;;;;;;;3.92;1.55;;;13.00;1.00;;;;;;5027834;28;20036;-90
2022/07/27 00:58:37;;;;;;;5.63;1.60;;;13.00;1.00;;;;;;5031344;28;20132;-90
2022/07/27 01:01:03;;;;;;;6.43;1.60;;;13.00;10.90;;;;;;5045498;28;20134;-89
2022/07/27 01:03:28;;;;;;;5.72;1.83;;;13.00;52.00;;;;;;5045010;28;20249;-91
2022/07/27 01:05:55;;;;;;;5.07;2.08;;;13.00;67.70;;;;;;5057257;28;20063;-90
2022/07/27 01:08:20;;;;;;;7.07;1.65;;;12.90;99.90;;;;;;5051224;28;20107;-89
2022/07/27 01:10:47;;;;;;;6.60;1.83;;;12.80;99.90;;;;;;5030998;28;20063;-90
2022/07/27 01:13:16;;;;;;;3.67;1.80;;;12.70;99.90;;;;;;5060213;28;20199;-90
2022/07/27 01:15:42;;;;;;;6.30;1.75;;;12.70;99.90;;;;;;5045710;28;20097;-90
2022/07/27 01:18:12;;;;;;;4.68;1.60;;;12.70;99.90;;;;;;5059301;28;20047;-90
2022/07/27 01:20:44;;;;;;;4.03;1.70;;;12.70;99.90;;;;;;5028653;28;20127;-89
2022/07/27 01:23:10;;;;;;;7.25;1.95;;;12.70;99.90;;;;;;5029865;28;20393;-89
2022/07/27 01:25:35;;;;;;;7.10;1.90;;;12.60;99.90;;;;;;5054880;28;20047;-90
2022/07/27 01:28:01;;;;;;;6.57;2.10;;;12.60;99.90;;;;;;5046941;28;20217;-90
2022/07/27 01:30:28;;;;;;;7.38;2.20;;;12.50;99.90;;;;;;5058186;28;20284;-90
2022/07/27 01:33:02;;;;;;;3.75;1.80;;;12.50;99.90;;;;;;5059300;28;20044;-90
2022/07/27 01:35:28;;;;;;;4.45;1.67;;;12.50;99.90;;;;;;5026935;28;20141;-90
2022/07/27 01:37:55;;;;;;;5.93;2.10;;;12.40;99.90;;;;;;5063784;28;20165;-89
2022/07/27 01:40:22;;;;;;;5.03;1.92;;;12.50;99.90;;;;;;5030575;28;20041;-90
2022/07/27 01:42:47;;;;;;;7.28;1.90;;;12.40;99.90;;;;;;5051486;28;20055;-89
2022/07/27 01:45:13;;;;;;;4.53;1.92;;;12.40;91.40;;;;;;5045743;28;20053;-90
2022/07/27 01:47:39;;;;;;;6.10;2.25;;;12.50;99.90;;;;;;5045919;28;20043;-90
2022/07/27 01:50:05;;;;;;;4.80;2.20;;;12.50;99.90;;;;;;5062654;28;20191;-89
2022/07/27 01:52:31;;;;;;;6.40;2.55;;;12.50;99.90;;;;;;5033139;28;20051;-90
2022/07/27 01:54:56;;;;;;;6.68;2.40;;;12.50;99.90;;;;;;5064288;28;20371;-90
2022/07/27 01:57:22;;;;;;;5.88;2.20;;;12.50;99.90;;;;;;5033474;28;20043;-90
2022/07/27 01:59:48;;;;;;;5.32;2.67;;;12.50;99.90;;;;;;5056389;28;20576;-89
2022/07/27 02:02:15;;;;;;;5.38;2.17;;;12.50;99.90;;;;;;5048753;28;20028;-89
2022/07/27 02:04:43;;;;;;;5.95;2.60;;;12.50;99.90;;;;;;5062956;28;20031;-90
2022/07/27 02:07:09;;;;;;;6.85;2.42;;;12.40;99.90;;;;;;5035251;28;20040;-90
2022/07/27 02:09:35;;;;;;;6.80;2.70;;;12.40;99.90;;;;;;5050556;28;20032;-89
2022/07/27 02:14:45;;;;;;;5.82;2.78;;;12.30;99.90;;;;;;5048182;28;20093;-89
2022/07/27 02:17:10;;;;;;;8.10;2.50;;;12.30;99.90;;;;;;5054543;28;20036;-89
2022/07/27 02:19:36;;;;;;;4.90;2.50;;;12.30;99.90;;;;;;5046719;28;20037;-90
2022/07/27 02:22:02;;;;;;;4.43;2.30;;;12.20;99.90;;;;;;5049342;28;20436;-90
2022/07/27 02:24:28;;;;;;;6.10;2.95;;;12.10;99.90;;;;;;5065501;28;20495;-89
2022/07/27 02:26:53;;;;;;;5.82;2.60;;;12.10;99.90;;;;;;5033449;28;20032;-90
2022/07/27 02:29:19;;;;;;;6.47;2.70;;;12.00;99.90;;;;;;5063804;28;20035;-89
2022/07/27 02:31:45;;;;;;;7.25;2.85;;;12.00;99.90;;;;;;5061742;28;20036;-90
2022/07/27 02:34:11;;;;;;;7.50;2.70;;;12.00;99.90;;;;;;5065769;28;20094;-89
2022/07/27 02:36:37;;;;;;;8.52;2.80;;;11.90;99.90;;;;;;5051779;28;20040;-89
2022/07/27 02:39:03;;;;;;;5.80;2.92;;;12.00;99.90;;;;;;5051474;28;20150;-89
2022/07/27 02:41:29;;;;;;;6.47;2.70;;;11.90;99.90;;;;;;5035088;28;20040;-89
2022/07/27 02:43:56;;;;;;;7.03;3.40;;;11.80;99.90;;;;;;5066585;28;20102;-90
2022/07/27 02:46:22;;;;;;;6.47;2.70;;;11.80;99.90;;;;;;5047705;28;20132;-89
2022/07/27 02:48:47;;;;;;;9.70;2.88;;;11.80;99.90;;;;;;5033781;28;20119;-89
2022/07/27 02:51:13;;;;;;;6.25;2.92;;;11.80;99.90;;;;;;5049288;28;20039;-88
2022/07/27 02:53:39;;;;;;;6.63;3.13;;;11.80;99.90;;;;;;5063503;28;20043;-89
2022/07/27 02:56:05;;;;;;;5.60;2.92;;;11.90;99.90;;;;;;5031565;28;20040;-90
2022/07/27 02:58:31;;;;;;;5.00;2.70;;;11.90;99.90;;;;;;5053560;28;20127;-89
2022/07/27 03:00:57;;;;;;;5.78;3.03;;;11.80;99.90;;;;;;5033869;28;20283;-89
2022/07/27 03:03:23;;;;;;;5.78;3.05;;;11.90;99.90;;;;;;5036922;28;20063;-90
2022/07/27 03:05:48;;;;;;;4.82;2.80;;;12.00;99.90;;;;;;5032841;28;20040;-88
2022/07/27 03:08:14;;;;;;;7.70;3.08;;;12.10;99.90;;;;;;5061332;28;20033;-89
2022/07/27 03:10:40;;;;;;;8.05;2.85;;;12.10;99.90;;;;;;5049361;28;20048;-89
2022/07/27 03:13:06;;;;;;;9.95;3.75;;;12.10;99.90;;;;;;5048978;28;20048;-89
2022/07/27 03:15:33;;;;;;;5.65;2.70;;;12.10;99.90;;;;;;5062727;28;20040;-89
2022/07/27 03:17:59;;;;;;;8.88;2.92;;;12.10;99.90;;;;;;5058885;28;20039;-90
2022/07/27 03:20:28;;;;;;;5.97;2.92;;;12.20;99.90;;;;;;5047261;28;20124;-89
2022/07/27 03:22:53;;;;;;;5.57;2.95;;;12.20;99.90;;;;;;5045316;28;20039;-88
2022/07/27 03:25:19;;;;;;;7.05;2.83;;;12.20;99.90;;;;;;5061447;28;20032;-90
2022/07/27 03:27:45;;;;;;;5.97;2.88;;;12.30;99.90;;;;;;5046084;28;20052;-89
2022/07/27 03:30:11;;;;;;;8.70;3.17;;;12.30;99.90;;;;;;5060410;28;20050;-89
2022/07/27 03:32:37;;;;;;;7.45;3.03;;;12.30;99.90;;;;;;5053674;28;20113;-89
2022/07/27 03:35:03;;;;;;;9.40;3.03;;;12.30;99.90;;;;;;5062895;28;20478;-89
2022/07/27 03:37:31;;;;;;;6.80;3.00;;;12.30;99.90;;;;;;5056647;28;20037;-90
2022/07/27 03:39:57;;;;;;;4.90;2.60;;;12.40;99.90;;;;;;5047012;28;20102;-89
2022/07/27 03:42:23;;;;;;;8.57;2.58;;;12.40;99.90;;;;;;5046660;28;20044;-87
2022/07/27 03:44:50;;;;;;;5.47;2.85;;;12.40;99.90;;;;;;5047921;28;20055;-88
2022/07/27 03:47:17;;;;;;;5.93;2.97;;;12.40;99.90;;;;;;5049098;28;20081;-88
2022/07/27 03:49:42;;;;;;;6.53;2.67;;;12.40;99.90;;;;;;5053448;28;20031;-89
2022/07/27 03:52:08;;;;;;;8.70;3.00;;;12.40;99.90;;;;;;5031915;28;20044;-89
2022/07/27 03:54:37;;;;;;;8.05;2.65;;;12.40;99.90;;;;;;5048308;28;20486;-89
2022/07/27 03:57:03;;;;;;;6.22;2.70;;;12.50;99.90;;;;;;5049142;28;20093;-89
2022/07/27 03:59:28;;;;;;;7.03;2.50;;;12.50;99.90;;;;;;5061959;28;20436;-89
2022/07/27 04:01:54;;;;;;;7.70;2.80;;;12.50;99.90;;;;;;5028465;28;20036;-89
2022/07/27 04:04:20;;;;;;;7.78;2.80;;;12.50;99.90;;;;;;5050158;28;20532;-89
2022/07/27 04:06:46;;;;;;;8.90;2.67;;;12.50;99.90;;;;;;5056967;28;20072;-89
2022/07/27 04:09:12;;;;;;;7.03;2.83;;;12.60;99.90;;;;;;5046429;28;20039;-88
2022/07/27 04:11:38;;;;;;;5.93;2.63;;;12.60;99.90;;;;;;5033761;28;20044;-89
2022/07/27 04:14:04;;;;;;;7.43;2.80;;;12.60;99.90;;;;;;5042625;28;20036;-89
2022/07/27 04:16:30;;;;;;;4.15;2.28;;;12.70;99.90;;;;;;5058348;28;20065;-88
2022/07/27 04:18:55;;;;;;;6.90;3.05;;;12.70;99.90;;;;;;5060371;28;20040;-89
2022/07/27 04:21:21;;;;;;;5.28;2.60;;;12.70;99.90;;;;;;5045726;28;20351;-88
2022/07/27 04:23:47;;;;;;;4.40;2.17;;;12.80;99.90;;;;;;5050036;28;20044;-82
2022/07/27 04:26:12;;;;;;;7.57;2.30;;;12.90;99.90;;;;;;5058481;28;20140;-82
2022/07/27 04:28:38;;;;;;;6.47;2.50;;;12.90;99.90;;;;;;5048401;28;20036;-82
2022/07/27 04:31:04;;;;;;;8.73;2.80;;;12.90;99.90;;;;;;5062499;28;20047;-82
2022/07/27 04:33:30;;;;;;;8.05;2.85;;;12.90;99.90;;;;;;5044741;28;20052;-82
2022/07/27 04:35:56;;;;;;;7.55;3.10;;;12.90;99.90;;;;;;5053648;28;20153;-82
2022/07/27 04:38:22;;;;;;;6.47;2.58;;;12.90;99.90;;;;;;5048596;28;20078;-82
2022/07/27 04:40:47;;;;;;;6.63;3.10;;;12.90;99.90;;;;;;5057812;28;20122;-82
2022/07/27 04:43:13;;;;;;;10.15;2.85;;;13.00;99.90;;;;;;5034284;28;20079;-83
2022/07/27 04:45:39;;;;;;;6.07;2.45;;;13.20;99.90;;;;;;5058950;28;20041;-82
2022/07/27 04:48:09;;;;;;;8.70;2.80;;;13.20;99.90;;;;;;5046555;28;20037;-82
2022/07/27 04:50:40;;;;;;;4.57;2.60;;;13.30;95.00;;;;;;5028038;28;20036;-82
2022/07/27 04:53:05;;;;;;;7.72;2.78;;;13.40;75.30;;;;;;5070157;28;20050;-82
2022/07/27 04:55:31;;;;;;;7.20;2.90;;;13.50;90.00;;;;;;5041831;28;20036;-82
2022/07/27 04:57:57;;;;;;;10.48;2.50;;;13.70;38.30;;;;;;5051476;28;20155;-90
2022/07/27 05:00:23;;;;;;;6.50;2.50;;;13.70;1.00;;;;;;5056779;28;20475;-89
2022/07/27 05:02:49;;;;;;;7.30;2.80;;;13.80;1.00;;;;;;5064193;28;20103;-90
2022/07/27 05:05:14;;;;;;;5.97;2.40;;;13.90;27.20;;;;;;5058308;28;20040;-89
2022/07/27 05:07:40;;;;;;;7.40;2.58;;;13.80;99.60;;;;;;5050556;28;20032;-88
2022/07/27 05:10:06;;;;;;;5.82;2.55;;;13.80;99.90;;;;;;5058494;28;20155;-88
2022/07/27 05:12:32;;;;;;;8.35;2.90;;;13.80;99.90;;;;;;5060855;28;20506;-89
2022/07/27 05:14:57;;;;;;;6.95;2.70;;;13.80;99.90;;;;;;5045678;28;20287;-90
2022/07/27 05:17:23;;;;;;;7.47;3.00;;;13.80;99.90;;;;;;5076229;28;20051;-89
2022/07/27 05:19:48;;;;;;;8.68;2.53;;;13.80;99.90;;;;;;5057045;28;20044;-89
2022/07/27 05:22:14;;;;;;;5.85;2.70;;;13.80;99.90;;;;;;5057498;28;20033;-90
2022/07/27 05:24:40;;;;;;;13.00;2.97;;;13.70;99.90;;;;;;5047331;28;20052;-90
2022/07/27 05:27:07;;;;;;;9.75;2.50;;;13.70;99.90;;;;;;5063387;28;20115;-89
2022/07/27 05:29:33;;;;;;;6.18;2.47;;;13.70;99.90;;;;;;5053029;28;20040;-88
2022/07/27 05:31:58;;;;;;;8.15;2.75;;;13.60;99.90;;;;;;5064209;28;20078;-88
2022/07/27 05:34:24;;;;;;;4.75;2.45;;;13.60;99.90;;;;;;5078263;28;20037;-88
2022/07/27 05:36:50;;;;;;;5.32;2.10;;;13.70;99.90;;;;;;5055625;28;20063;-87
2022/07/27 05:39:15;;;;;;;6.60;2.17;;;13.70;99.90;;;;;;5053073;28;20068;-88
2022/07/27 05:41:41;;;;;;;6.25;2.13;;;13.70;99.90;;;;;;5061440;28;20279;-88
2022/07/27 05:44:07;;;;;;;5.15;1.98;;;13.70;99.90;;;;;;5064085;28;20313;-89
2022/07/27 05:46:33;;;;;;;7.63;1.77;;;13.80;99.90;;;;;;5032902;28;20118;-87
2022/07/27 05:48:59;;;;;;;5.35;2.10;;;13.90;99.90;;;;;;5036544;28;20064;-87
2022/07/27 05:51:25;;;;;;;8.23;1.95;;;13.90;99.90;;;;;;5047631;28;20276;-88
2022/07/27 05:53:50;;;;;;;4.97;2.70;;;13.80;99.90;;;;;;5037186;28;20066;-88
2022/07/27 05:56:16;;;;;;;5.18;2.03;;;13.90;99.90;;;;;;5060210;28;20353;-85
2022/07/27 05:58:42;;;;;;;7.47;2.40;;;13.90;99.90;;;;;;5052388;28;20066;-84
2022/07/27 06:01:07;;;;;;;5.88;2.30;;;13.80;99.90;;;;;;5049523;28;20171;-85
2022/07/27 06:03:37;;;;;;;7.00;2.03;;;13.90;99.90;;;;;;5048459;28;20112;-86
2022/07/27 06:08:47;;;;;;;9.43;2.40;;;13.90;99.90;;;;;;5082176;28;20033;-86
2022/07/27 06:11:13;;;;;;;5.72;2.20;;;14.10;99.90;;;;;;5052695;28;20047;-85
2022/07/27 06:13:38;;;;;;;6.35;2.17;;;14.20;99.90;;;;;;5051514;28;20033;-86
2022/07/27 06:16:05;;;;;;;5.38;2.15;;;14.30;99.90;;;;;;5063402;28;20046;-87
2022/07/27 06:18:30;;;;;;;5.43;2.00;;;14.30;99.90;;;;;;5068850;28;20111;-86
2022/07/27 06:21:01;;;;;;;6.57;2.10;;;14.50;99.90;;;;;;5031625;28;20045;-86
2022/07/27 06:23:27;;;;;;;7.70;2.10;;;14.70;99.90;;;;;;5039237;28;20036;-87
2022/07/27 06:25:54;;;;;;;8.27;2.50;;;14.70;92.40;;;;;;5034448;28;20036;-86
2022/07/27 06:28:19;;;;;;;4.38;2.00;;;15.00;99.90;;;;;;5062355;28;20087;-86
2022/07/27 06:30:46;;;;;;;7.82;1.88;;;15.20;99.90;;;;;;5052523;28;20520;-87
2022/07/27 06:33:12;;;;;;;6.13;1.98;;;15.20;99.90;;;;;;5040433;28;20289;-87
2022/07/27 06:35:41;;;;;;;5.03;1.77;;;15.50;1.00;;;;;;5052514;28;20525;-87
2022/07/27 06:38:07;;;;;;;10.07;2.00;;;15.50;99.90;;;;;;5079335;28;20325;-87
2022/07/27 06:40:34;;;;;;;7.45;1.95;;;15.70;99.90;;;;;;5083470;28;20055;-87
2022/07/27 06:42:59;;;;;;;5.60;1.80;;;15.80;99.90;;;;;;5038816;28;20033;-87
2022/07/27 06:45:26;;;;;;;6.10;1.80;;;16.00;99.90;;;;;;5064199;28;20496;-88
2022/07/27 06:47:51;;;;;;;6.43;2.10;;;16.20;1.00;;;;;;5051731;28;20040;-88
2022/07/27 06:50:19;;;;;;;8.52;1.95;;;16.10;99.90;;;;;;5034007;28;20040;-88
2022/07/27 06:52:45;;;;;;;5.22;1.73;;;16.10;99.90;;;;;;5032271;28;20036;-87
2022/07/27 06:55:12;;;;;;;8.35;1.92;;;16.00;99.90;;;;;;5083714;28;20048;-88
2022/07/27 06:57:37;;;;;;;6.20;1.92;;;16.00;99.90;;;;;;5047980;28;20041;-87
2022/07/27 07:00:05;;;;;;;4.55;1.90;;;15.80;99.90;;;;;;5075860;28;20033;-88
2022/07/27 07:02:31;;;;;;;5.88;2.20;;;15.90;99.90;;;;;;5040138;28;20109;-87
2022/07/27 07:04:57;;;;;;;10.35;1.92;;;16.00;99.90;;;;;;5066421;28;20048;-88
2022/07/27 07:07:23;;;;;;;7.85;2.13;;;16.10;99.90;;;;;;5032051;28;20040;-88
2022/07/27 07:09:49;;;;;;;6.32;2.08;;;16.20;99.90;;;;;;5086629;28;20051;-88
2022/07/27 07:12:17;;;;;;;5.82;1.52;;;16.30;99.90;;;;;;5035901;28;20113;-88
2022/07/27 07:14:45;;;;;;;6.78;1.60;;;16.30;99.90;;;;;;5050073;28;20472;-88
2022/07/27 07:17:11;;;;;;;7.25;1.65;;;16.30;39.00;;;;;;5081771;28;20044;-88
2022/07/27 07:19:40;;;;;;;6.93;1.65;;;16.40;58.20;;;;;;5052362;28;20045;-88
2022/07/27 07:22:06;;;;;;;7.25;2.10;;;16.40;99.90;;;;;;5043802;28;20036;-88
2022/07/27 07:24:31;;;;;;;9.32;1.92;;;16.40;99.90;;;;;;5030696;28;20091;-87
2022/07/27 07:26:58;;;;;;;5.55;1.50;;;16.50;99.90;;;;;;5037976;28;20059;-88
2022/07/27 07:29:23;;;;;;;3.42;1.40;;;16.60;99.90;;;;;;5040781;28;20453;-89
2022/07/27 07:31:49;;;;;;;7.97;1.95;;;16.60;92.50;;;;;;5062018;28;20036;-88
2022/07/27 07:34:15;;;;;;;8.20;2.08;;;16.80;18.80;;;;;;5060675;28;20106;-89
2022/07/27 07:36:44;;;;;;;5.53;1.92;;;16.90;99.90;;;;;;5075698;28;20534;-89
2022/07/27 07:39:10;;;;;;;4.30;1.80;;;16.80;1.00;;;;;;5033333;28;20048;-87
2022/07/27 07:41:36;;;;;;;2.63;1.60;;;16.90;1.00;;;;;;5057738;28;20040;-88
2022/07/27 07:44:02;;;;;;;4.90;1.77;;;17.10;1.00;;;;;;5047849;28;20058;-88
2022/07/27 07:46:28;;;;;;;5.35;2.40;;;17.30;1.00;;;;;;5075189;28;20070;-88
2022/07/27 07:48:54;;;;;;;5.50;1.70;;;17.50;1.00;;;;;;5045771;28;20267;-89
2022/07/27 07:51:19;;;;;;;5.85;1.85;;;17.60;1.00;;;;;;5028347;28;20040;-89
2022/07/27 07:53:46;;;;;;;8.32;1.55;;;17.50;99.90;;;;;;5048789;28;20389;-88
2022/07/27 07:56:13;;;;;;;6.55;1.92;;;17.50;99.90;;;;;;5030608;28;20051;-89
2022/07/27 07:58:39;;;;;;;4.45;1.48;;;17.30;99.90;;;;;;5050294;28;20505;-88
2022/07/27 08:01:04;;;;;;;5.35;1.30;;;17.50;1.00;;;;;;5051371;28;20124;-88
2022/07/27 08:03:30;;;;;;;6.38;1.70;;;17.20;99.90;;;;;;5033915;28;20032;-88
2022/07/27 08:05:55;;;;;;;5.35;1.45;;;16.90;99.90;;;;;;5045188;28;20033;-89
2022/07/27 08:08:21;;;;;;;4.10;1.40;;;16.50;6.50;;;;;;5063920;28;20040;-88
2022/07/27 08:10:47;;;;;;;3.95;1.80;;;16.00;65.40;;;;;;5054351;28;20097;-87
2022/07/27 08:13:13;;;;;;;7.10;1.83;;;15.80;99.90;;;;;;5061455;28;20146;-86
2022/07/27 08:15:39;;;;;;;5.93;2.20;;;15.50;99.90;;;;;;5038213;28;20050;-89
2022/07/27 08:18:05;;;;;;;6.57;2.10;;;15.30;1.00;;;;;;5049856;28;20071;-88
2022/07/27 08:20:31;;;;;;;4.60;2.05;;;15.20;1.00;;;;;;5032738;28;20044;-88
2022/07/27 08:22:56;;;;;;;4.05;1.85;;;15.20;1.00;;;;;;5047429;28;20435;-87
2022/07/27 08:25:22;;;;;;;6.25;1.90;;;15.30;1.00;;;;;;5052464;28;20092;-87
2022/07/27 08:27:48;;;;;;;5.18;1.90;;;15.30;99.90;;;;;;5045594;28;20043;-87
2022/07/27 08:30:13;;;;;;;4.32;1.67;;;15.40;99.90;;;;;;5051245;28;20328;-87
2022/07/27 08:33:05;;;;;;;5.70;1.55;;;15.50;99.90;;;;;;5060270;28;20459;-89
2022/07/27 08:35:32;;;;;;;6.53;1.60;;;15.70;99.90;;;;;;5028338;28;20135;-87
2022/07/27 08:37:59;;;;;;;4.90;1.70;;;15.60;99.90;;;;;;5052130;28;20037;-88
2022/07/27 08:40:28;;;;;;;5.53;2.00;;;15.90;99.90;;;;;;5031133;28;20070;-88
2022/07/27 08:42:54;;;;;;;9.48;1.80;;;15.90;99.90;;;;;;5053188;28;20689;-88
2022/07/27 08:45:20;;;;;;;5.35;1.90;;;16.20;99.90;;;;;;5063115;28;20092;-88
2022/07/27 08:47:46;;;;;;;10.70;1.77;;;16.30;99.90;;;;;;5027888;28;20040;-88
2022/07/27 08:50:24;;;;;;;4.50;1.70;;;16.30;1.00;;;;;;5045740;28;20048;-88
2022/07/27 08:53:03;;;;;;;9.02;1.92;;;16.50;20.90;;;;;;5039148;28;20098;-88
2022/07/27 08:55:42;;;;;;;6.90;1.65;;;16.60;1.00;;;;;;5025413;28;20024;-87
2022/07/27 08:58:09;;;;;;;4.88;1.50;;;16.90;1.00;;;;;;5042521;28;20799;-88
2022/07/27 09:00:39;;;;;;;4.90;1.60;;;17.10;99.90;;;;;;5024191;28;20291;-88
2022/07/27 09:03:06;;;;;;;4.03;1.35;;;16.80;1.00;;;;;;5026364;28;20079;-87
2022/07/27 09:05:31;;;;;;;2.63;0.82;;;16.90;1.00;;;;;;5046751;28;20028;-87
2022/07/27 09:08:15;;;;;;;3.22;1.10;;;16.90;1.00;;;;;;5053767;28;20438;-89
2022/07/27 09:10:42;;;;;;;2.97;1.25;;;17.00;1.00;;;;;;5031066;28;20118;-88
2022/07/27 09:13:28;;;;;;;4.03;1.42;;;17.50;99.90;;;;;;5061536;28;20056;-88
2022/07/27 09:16:00;;;;;;;2.90;1.10;;;17.80;99.90;;;;;;5056503;28;20552;-87
2022/07/27 09:18:29;;;;;;;5.53;1.48;;;18.20;99.90;;;;;;5031537;28;20480;-88
2022/07/27 09:21:10;;;;;;;7.25;1.23;;;18.30;99.90;;;;;;5029096;28;20044;-87
2022/07/27 09:23:37;;;;;;;5.90;1.65;;;18.80;99.90;;;;;;5067766;28;20117;-88
2022/07/27 09:26:21;;;;;;;5.90;1.50;;;19.00;99.90;;;;;;5056720;28;20593;-87
2022/07/27 09:29:01;;;;;;;3.65;1.23;;;19.00;99.90;;;;;;5038665;28;20060;-87
2022/07/27 09:31:27;;;;;;;4.20;1.40;;;18.90;99.90;;;;;;5065996;28;20056;-87
2022/07/27 09:33:55;;;;;;;4.60;1.75;;;18.40;99.90;;;;;;5042524;28;20040;-87
2022/07/27 09:36:23;;;;;;;4.82;1.30;;;18.60;99.90;;;;;;5036681;28;20044;-86
2022/07/27 09:39:04;;;;;;;5.13;1.50;;;18.30;99.90;;;;;;5026716;28;20052;-87
2022/07/27 09:41:45;;;;;;;3.85;1.48;;;18.50;99.90;;;;;;5045152;28;20506;-88
2022/07/27 09:44:11;;;;;;;3.17;1.42;;;18.70;99.90;;;;;;5057574;28;20451;-87
2022/07/27 09:46:42;;;;;;;2.67;1.05;;;18.60;99.90;;;;;;5073684;28;20422;-87
2022/07/27 09:49:30;;;;;;;5.05;1.30;;;18.90;99.90;;;;;;5054316;28;20058;-86
2022/07/27 09:51:57;;;;;;;4.60;1.30;;;19.40;99.90;;;;;;5027552;28;20040;-88
2022/07/27 09:54:24;;;;;;;2.83;1.20;;;19.00;99.90;;;;;;5047386;28;20029;-88
2022/07/27 09:57:00;;;;;;;4.88;1.17;;;19.00;99.90;;;;;;5055999;28;20039;-87
2022/07/27 09:59:29;;;;;;;5.32;1.50;;;19.10;99.90;;;;;;5071737;28;20464;-86
2022/07/27 10:01:55;;;;;;;2.90;1.02;;;18.90;99.90;;;;;;5047514;28;20063;-86
2022/07/27 10:04:22;;;;;;;3.22;1.25;;;18.80;99.90;;;;;;5059471;28;21627;-87
2022/07/27 10:06:48;;;;;;;5.40;1.27;;;19.20;99.90;;;;;;5071700;28;20085;-88
2022/07/27 10:09:18;;;;;;;2.65;1.17;;;18.90;99.90;;;;;;5048760;28;20090;-87
2022/07/27 10:11:47;;;;;;;2.70;0.95;;;19.30;99.90;;;;;;5032923;28;20059;-88
2022/07/27 10:14:13;;;;;;;2.08;1.20;;;19.50;99.90;;;;;;5067083;28;20117;-86
2022/07/27 10:16:40;;;;;;;2.70;0.80;;;19.70;99.90;;;;;;5057676;28;20062;-87
2022/07/27 10:19:33;;;;;;;3.00;1.10;;;19.90;99.90;;;;;;5075444;28;20032;-87
2022/07/27 10:21:58;;;;;;;4.65;1.00;;;20.20;99.90;;;;;;5062006;28;20041;-87
2022/07/27 10:24:30;;;;;;;3.25;1.00;;;19.40;99.90;;;;;;5050071;28;20392;-88
2022/07/27 10:26:56;;;;;;;6.38;1.10;;;19.20;99.90;;;;;;5061287;28;20386;-89
2022/07/27 10:29:23;;;;;;;3.22;1.08;;;19.60;99.90;;;;;;5073706;28;20044;-87
2022/07/27 10:31:52;;;;;;;6.72;1.33;;;19.00;99.90;;;;;;5025869;28;20160;-87
2022/07/27 10:34:37;;;;;;;2.35;1.05;;;19.00;99.90;;;;;;5044778;28;20149;-88
2022/07/27 10:37:14;;;;;;;3.72;1.08;;;20.00;99.90;;;;;;5069335;28;20048;-88
2022/07/27 10:42:48;;;;;;;3.72;1.17;;;19.50;99.90;;;;;;5045933;28;20102;-88
2022/07/27 10:45:16;;;;;;;4.53;0.82;;;19.60;99.90;;;;;;5029826;28;20060;-88
2022/07/27 10:47:44;;;;;;;3.63;1.40;;;19.70;99.90;;;;;;5043533;28;20041;-88
2022/07/27 10:50:16;;;;;;;3.00;1.00;;;19.70;99.90;;;;;;5045906;28;20075;-88
2022/07/27 10:52:51;;;;;;;2.85;1.20;;;19.40;99.90;;;;;;5063321;28;20047;-87
2022/07/27 10:55:30;;;;;;;3.72;1.08;;;19.10;99.90;;;;;;5045594;28;20442;-87
2022/07/27 10:58:17;;;;;;;2.10;0.90;;;18.90;99.90;;;;;;5047440;28;20154;-88
2022/07/27 11:00:49;;;;;;;1.75;0.80;;;18.70;99.90;;;;;;5027837;28;20049;-88
2022/07/27 11:03:22;;;;;;;2.58;1.00;;;18.80;99.90;;;;;;5076383;28;20044;-87
2022/07/27 11:06:31;;;;;;;2.60;1.00;;;18.80;99.90;;;;;;5044897;28;20040;-88
2022/07/27 11:09:01;;;;;;;3.20;1.17;;;18.80;99.90;;;;;;4997001;28;20040;-88
2022/07/27 11:11:27;;;;;;;4.00;1.02;;;19.30;99.90;;;;;;5043733;28;20044;-88
2022/07/27 11:13:56;;;;;;;6.70;1.02;;;19.20;99.90;;;;;;5033103;28;20059;-89
2022/07/27 11:16:22;;;;;;;3.20;1.02;;;19.50;99.90;;;;;;5043485;28;20121;-88
2022/07/27 11:18:54;;;;;;;4.28;1.00;;;19.40;93.60;;;;;;5051297;28;20046;-89
2022/07/27 11:21:48;;;;;;;2.58;0.80;;;19.50;95.80;;;;;;5058366;28;20068;-89
2022/07/27 11:24:17;;;;;;;2.03;0.70;;;19.50;84.70;;;;;;5054148;28;20969;-88
2022/07/27 11:26:48;;;;;;;1.83;0.50;;;19.60;64.90;;;;;;5083652;28;20123;-88
2022/07/27 11:29:19;;;;;;;4.72;0.80;;;19.50;52.30;;;;;;5037690;28;20056;-89
2022/07/27 11:31:49;;;;;;;1.70;0.82;;;20.60;57.70;;;;;;5038378;28;20043;-88
2022/07/27 11:34:16;;;;;;;4.70;0.70;;;20.30;57.20;;;;;;5034410;28;20105;-88
2022/07/27 11:36:44;;;;;;;2.78;0.80;;;20.20;69.70;;;;;;5038809;28;20435;-87
2022/07/27 11:39:15;;;;;;;2.25;0.90;;;19.90;66.90;;;;;;5039973;28;20428;-87
2022/07/27 11:41:42;;;;;;;4.25;0.93;;;19.70;62.40;;;;;;5049859;28;20330;-89
2022/07/27 11:44:18;;;;;;;1.85;0.80;;;20.60;75.60;;;;;;5050274;28;20529;-89
2022/07/27 11:46:46;;;;;;;4.40;0.77;;;21.40;68.70;;;;;;5061234;28;20127;-89
2022/07/27 11:49:17;;;;;;;4.43;1.00;;;20.00;58.00;;;;;;5057283;28;20081;-88
2022/07/27 11:51:46;;;;;;;2.95;0.90;;;19.80;65.00;;;;;;5064669;28;20137;-88
2022/07/27 11:54:22;;;;;;;2.60;0.90;;;19.20;71.80;;;;;;5064970;28;20048;-88
2022/07/27 11:56:51;;;;;;;6.00;1.08;;;19.10;79.20;;;;;;5077207;28;20036;-88
2022/07/27 11:59:19;;;;;;;4.57;0.98;;;19.10;86.40;;;;;;5084214;28;20181;-88
2022/07/27 12:01:51;;;;;;;3.05;0.88;;;19.10;96.20;;;;;;5051146;28;20439;-88
2022/07/27 12:04:23;;;;;;;4.35;0.90;;;19.10;92.70;;;;;;5039771;28;20037;-88
2022/07/27 12:07:13;;;;;;;1.38;0.80;;;19.00;99.60;;;;;;5047045;28;20043;-88
2022/07/27 12:09:44;;;;;;;3.75;1.23;;;19.20;93.80;;;;;;5049830;28;20036;-88
2022/07/27 12:12:21;;;;;;;3.00;0.85;;;19.80;97.60;;;;;;5073224;28;20052;-88
2022/07/27 12:14:49;;;;;;;3.40;1.02;;;20.70;99.90;;;;;;5026903;28;20079;-88
2022/07/27 12:17:36;;;;;;;5.75;1.10;;;20.70;75.00;;;;;;5034872;28;20067;-87
2022/07/27 12:20:08;;;;;;;3.25;1.00;;;20.50;62.30;;;;;;5062203;28;20042;-88
2022/07/27 12:22:44;;;;;;;6.63;1.27;;;20.80;72.80;;;;;;5061469;28;20035;-88
2022/07/27 12:25:16;;;;;;;4.45;0.70;;;21.20;65.70;;;;;;5059173;28;20042;-89
2022/07/27 12:28:07;;;;;;;3.15;1.13;;;20.50;65.40;;;;;;5090188;28;20317;-89
2022/07/27 12:30:37;;;;;;;5.22;1.00;;;20.30;75.90;;;;;;5062963;28;20063;-88
2022/07/27 12:33:23;;;;;;;3.33;0.90;;;20.00;76.90;;;;;;5034192;28;20036;-89
2022/07/27 12:35:49;;;;;;;5.20;1.00;;;19.80;80.70;;;;;;5056147;28;20044;-89
2022/07/27 12:38:15;;;;;;;4.45;1.15;;;20.20;90.80;;;;;;5051158;28;20047;-88
2022/07/27 12:40:50;;;;;;;3.67;1.10;;;20.00;92.60;;;;;;5050566;28;20528;-88
2022/07/27 12:43:21;;;;;;;3.38;0.90;;;19.60;91.50;;;;;;5060993;28;20526;-88
2022/07/27 12:45:49;;;;;;;3.35;0.90;;;19.60;83.80;;;;;;5034962;28;20048;-89
2022/07/27 12:48:26;;;;;;;5.72;1.20;;;20.40;94.60;;;;;;5081209;28;20051;-89
2022/07/27 12:51:01;;;;;;;3.92;1.10;;;20.70;91.40;;;;;;5035199;28;20207;-88
2022/07/27 12:53:28;;;;;;;3.97;1.00;;;20.40;81.90;;;;;;5075619;28;20162;-89
2022/07/27 12:55:59;;;;;;;4.80;0.95;;;20.00;79.60;;;;;;5033449;28;20051;-89
2022/07/27 12:58:25;;;;;;;3.03;0.85;;;19.90;79.30;;;;;;5034419;28;20055;-89
2022/07/27 13:00:51;;;;;;;2.97;0.90;;;20.00;81.70;;;;;;5076384;28;20118;-89